PWSweather.com
Personal Weather Stations
Station Observations
MAKAWAOWX1
Up Country Maui, Makawao, HI 96768

Up Country MauiMakawao, HI 96768

Lat: 20.856944, Lon: -156.3149667

Elevation: 1500

Station Type: Davis Vantage Pro

Latest ConditionsUpdated 1:50:03 PM HST Sunday, Nov 18, 2018
Currently Today's Max Today's Min Today's Average
Temperature 74.5°F23.6°C 74.5°F23.6°C 65.1°F18.4°C 67.9°F19.9°C
Dew Point 65.7°F18.7°C 65.8°F18.8°C 62.7°F17.1°C 64.3°F17.9°C
Winds 11.5 mph NE18.5 kmh NE 16.1 mph -25.9 kmh - - 11.0 mph 17.7 kmh
Wind Gusts 18.4 mph29.6 kmh 24.2 mph38.9 kmh - -
Humidity 74% 95% 72% 89%
Pressure 29.94 in1013.9 mb 30.01 in1016.3 mb 29.93 in1013.5 mb -
Precipitation - 0.08 in2.0 mm - -
Hour Temp Dew Point Humidity Winds Wind Gusts Pressure Precip Precip Rate Daily Precip Total
01:50 PM 74.5°F23.6°C 65.7°F18.7°C 74% 11.5 mph NE18.5 kmh NE 18.4 mph29.6 kmh 29.94 in1013.9 mb - 0.00 in0.0 mm 0.08 in2.0 mm
01:40 PM 73.7°F23.2°C 64.5°F18.1°C 73% 10.4 mph ENE16.7 kmh ENE 16.1 mph25.9 kmh 29.94 in1013.9 mb - 0.00 in0.0 mm 0.08 in2.0 mm
01:30 PM 73.6°F23.1°C 64.4°F18.0°C 73% 15.0 mph NE24.1 kmh NE 20.7 mph33.3 kmh 29.94 in1013.9 mb - 0.00 in0.0 mm 0.08 in2.0 mm
01:20 PM 73.9°F23.3°C 64.3°F17.9°C 72% 10.4 mph ENE16.7 kmh ENE 16.1 mph25.9 kmh 29.94 in1013.9 mb - 0.00 in0.0 mm 0.08 in2.0 mm
01:10 PM 73.1°F22.8°C 64.3°F17.9°C 74% 12.7 mph NE20.4 kmh NE 18.4 mph29.6 kmh 29.94 in1013.9 mb - 0.00 in0.0 mm 0.08 in2.0 mm
01:00 PM 72.4°F22.4°C 63.6°F17.6°C 74% 16.1 mph NNE25.9 kmh NNE 21.9 mph35.2 kmh 29.94 in1013.9 mb - 0.00 in0.0 mm 0.08 in2.0 mm
12:50 PM 72.0°F22.2°C 64.0°F17.8°C 76% 15.0 mph NE24.1 kmh NE 17.3 mph27.8 kmh 29.94 in1013.9 mb - 0.00 in0.0 mm 0.08 in2.0 mm
12:40 PM 72.6°F22.6°C 64.6°F18.1°C 76% 12.7 mph NE20.4 kmh NE 17.3 mph27.8 kmh 29.95 in1014.2 mb - 0.00 in0.0 mm 0.08 in2.0 mm
12:30 PM 73.3°F22.9°C 65.3°F18.5°C 76% 13.8 mph NE22.2 kmh NE 19.6 mph31.5 kmh 29.95 in1014.2 mb - 0.00 in0.0 mm 0.08 in2.0 mm
12:20 PM 73.1°F22.8°C 65.1°F18.4°C 76% 11.5 mph NE18.5 kmh NE 18.4 mph29.6 kmh 29.96 in1014.6 mb - 0.00 in0.0 mm 0.08 in2.0 mm
12:10 PM 73.6°F23.1°C 64.0°F17.8°C 72% 11.5 mph NE18.5 kmh NE 11.5 mph18.5 kmh 29.96 in1014.6 mb - 0.00 in0.0 mm 0.08 in2.0 mm
12:00 PM 73.3°F22.9°C 64.1°F17.8°C 73% 16.1 mph NE25.9 kmh NE 24.2 mph38.9 kmh 29.97 in1014.9 mb - 0.00 in0.0 mm 0.08 in2.0 mm
11:50 AM 72.8°F22.7°C 64.8°F18.2°C 76% 13.8 mph NE22.2 kmh NE 17.3 mph27.8 kmh 29.98 in1015.2 mb - 0.00 in0.0 mm 0.08 in2.0 mm
11:40 AM 71.7°F22.1°C 65.2°F18.4°C 80% 9.2 mph NE14.8 kmh NE 12.7 mph20.4 kmh 29.98 in1015.2 mb - 0.00 in0.0 mm 0.08 in2.0 mm
11:30 AM 70.6°F21.4°C 64.1°F17.8°C 80% 9.2 mph NE14.8 kmh NE 12.7 mph20.4 kmh 29.99 in1015.6 mb - 0.00 in0.0 mm 0.08 in2.0 mm
11:20 AM 70.6°F21.4°C 64.5°F18.1°C 81% 11.5 mph NE18.5 kmh NE 16.1 mph25.9 kmh 29.99 in1015.6 mb - 0.00 in0.0 mm 0.08 in2.0 mm
11:10 AM 70.2°F21.2°C 64.5°F18.1°C 82% 8.1 mph NE13.0 kmh NE 13.8 mph22.2 kmh 30.00 in1015.9 mb - 0.00 in0.0 mm 0.08 in2.0 mm
11:00 AM 70.0°F21.1°C 64.2°F17.9°C 82% 10.4 mph NE16.7 kmh NE 16.1 mph25.9 kmh 30.00 in1015.9 mb - 0.00 in0.0 mm 0.08 in2.0 mm
10:50 AM 70.0°F21.1°C 64.2°F17.9°C 82% 9.2 mph NNE14.8 kmh NNE 16.1 mph25.9 kmh 30.00 in1015.9 mb - 0.00 in0.0 mm 0.08 in2.0 mm
10:40 AM 70.1°F21.2°C 64.0°F17.8°C 81% 11.5 mph NE18.5 kmh NE 17.3 mph27.8 kmh 30.01 in1016.3 mb - 0.00 in0.0 mm 0.08 in2.0 mm
10:30 AM 69.5°F20.8°C 64.5°F18.1°C 84% 6.9 mph NE11.1 kmh NE 11.5 mph18.5 kmh 30.01 in1016.3 mb - 0.00 in0.0 mm 0.08 in2.0 mm
10:20 AM 69.2°F20.7°C 64.1°F17.8°C 84% 12.7 mph NE20.4 kmh NE 16.1 mph25.9 kmh 30.00 in1015.9 mb - 0.00 in0.0 mm 0.08 in2.0 mm
10:10 AM 68.8°F20.4°C 64.1°F17.8°C 85% 11.5 mph NE18.5 kmh NE 11.5 mph18.5 kmh 30.00 in1015.9 mb - 0.00 in0.0 mm 0.08 in2.0 mm
10:00 AM 68.9°F20.5°C 64.5°F18.1°C 86% 11.5 mph NE18.5 kmh NE 16.1 mph25.9 kmh 30.00 in1015.9 mb - 0.00 in0.0 mm 0.08 in2.0 mm
09:50 AM 69.0°F20.6°C 64.6°F18.1°C 86% 12.7 mph NE20.4 kmh NE 16.1 mph25.9 kmh 30.00 in1015.9 mb - 0.00 in0.0 mm 0.08 in2.0 mm
09:40 AM 69.0°F20.6°C 65.3°F18.5°C 88% 10.4 mph NE16.7 kmh NE 16.1 mph25.9 kmh 30.00 in1015.9 mb - 0.00 in0.0 mm 0.08 in2.0 mm
09:30 AM 68.7°F20.4°C 65.0°F18.3°C 88% 10.4 mph NE16.7 kmh NE 16.1 mph25.9 kmh 30.01 in1016.3 mb - 0.00 in0.0 mm 0.08 in2.0 mm
09:20 AM 68.1°F20.1°C 64.7°F18.2°C 89% 4.6 mph NE7.4 kmh NE 12.7 mph20.4 kmh 30.01 in1016.3 mb - 0.00 in0.0 mm 0.08 in2.0 mm
09:10 AM 67.8°F19.9°C 64.7°F18.2°C 90% 10.4 mph NE16.7 kmh NE 16.1 mph25.9 kmh 30.01 in1016.3 mb - 0.00 in0.0 mm 0.08 in2.0 mm
09:00 AM 67.3°F19.6°C 64.3°F17.9°C 90% 10.4 mph NNE16.7 kmh NNE 16.1 mph25.9 kmh 30.01 in1016.3 mb - 0.00 in0.0 mm 0.08 in2.0 mm
08:50 AM 66.8°F19.3°C 64.1°F17.8°C 91% 10.4 mph NE16.7 kmh NE 12.7 mph20.4 kmh 30.00 in1015.9 mb - 0.00 in0.0 mm 0.08 in2.0 mm
08:40 AM 66.6°F19.2°C 64.2°F17.9°C 92% 12.7 mph NE20.4 kmh NE 16.1 mph25.9 kmh 30.01 in1016.3 mb - 0.00 in0.0 mm 0.08 in2.0 mm
08:30 AM 66.4°F19.1°C 64.0°F17.8°C 92% 9.2 mph NE14.8 kmh NE 11.5 mph18.5 kmh 30.00 in1015.9 mb - 0.00 in0.0 mm 0.08 in2.0 mm
08:20 AM 66.1°F18.9°C 63.7°F17.6°C 92% 10.4 mph NE16.7 kmh NE 18.4 mph29.6 kmh 30.01 in1016.3 mb - 0.00 in0.0 mm 0.08 in2.0 mm
08:10 AM 65.9°F18.8°C 63.8°F17.7°C 93% 8.1 mph ENE13.0 kmh ENE 15.0 mph24.1 kmh 30.00 in1015.9 mb - 0.00 in0.0 mm 0.08 in2.0 mm
08:00 AM 65.7°F18.7°C 63.6°F17.6°C 93% 10.4 mph NE16.7 kmh NE 11.5 mph18.5 kmh 30.00 in1015.9 mb - 0.00 in0.0 mm 0.08 in2.0 mm
07:50 AM 65.4°F18.6°C 63.3°F17.4°C 93% 11.5 mph NE18.5 kmh NE 21.9 mph35.2 kmh 29.99 in1015.6 mb - 0.00 in0.0 mm 0.08 in2.0 mm
07:40 AM 65.4°F18.6°C 63.3°F17.4°C 93% 10.4 mph NE16.7 kmh NE 16.1 mph25.9 kmh 29.99 in1015.6 mb - 0.01 in0.3 mm 0.08 in2.0 mm
07:30 AM 65.4°F18.6°C 63.3°F17.4°C 93% 13.8 mph NE22.2 kmh NE 21.9 mph35.2 kmh 29.99 in1015.6 mb - 0.01 in0.3 mm 0.08 in2.0 mm
07:20 AM 65.3°F18.5°C 63.2°F17.3°C 93% 13.8 mph NE22.2 kmh NE 18.4 mph29.6 kmh 29.99 in1015.6 mb - 0.01 in0.3 mm 0.08 in2.0 mm
07:10 AM 65.2°F18.4°C 63.1°F17.3°C 93% 8.1 mph NE13.0 kmh NE 15.0 mph24.1 kmh 29.99 in1015.6 mb - 0.01 in0.3 mm 0.08 in2.0 mm
07:00 AM 65.2°F18.4°C 63.1°F17.3°C 93% 10.4 mph NE16.7 kmh NE 17.3 mph27.8 kmh 29.98 in1015.2 mb - 0.01 in0.3 mm 0.08 in2.0 mm
06:50 AM 65.3°F18.5°C 62.9°F17.2°C 92% 13.8 mph NE22.2 kmh NE 15.0 mph24.1 kmh 29.98 in1015.2 mb - 0.01 in0.3 mm 0.08 in2.0 mm
06:40 AM 65.2°F18.4°C 62.8°F17.1°C 92% 16.1 mph NE25.9 kmh NE 23.0 mph37.0 kmh 29.97 in1014.9 mb - 0.00 in0.0 mm 0.07 in1.8 mm
06:30 AM 65.1°F18.4°C 62.7°F17.1°C 92% 10.4 mph ENE16.7 kmh ENE 19.6 mph31.5 kmh 29.97 in1014.9 mb - 0.00 in0.0 mm 0.07 in1.8 mm
06:20 AM 65.3°F18.5°C 63.2°F17.3°C 93% 11.5 mph NE18.5 kmh NE 17.3 mph27.8 kmh 29.97 in1014.9 mb - 0.01 in0.3 mm 0.07 in1.8 mm
06:10 AM 65.6°F18.7°C 63.6°F17.6°C 93% 6.9 mph E11.1 kmh E 6.9 mph11.1 kmh 29.97 in1014.9 mb - 0.01 in0.3 mm 0.07 in1.8 mm
06:00 AM 65.8°F18.8°C 63.7°F17.6°C 93% 9.2 mph NE14.8 kmh NE 10.4 mph16.7 kmh 29.96 in1014.6 mb - 0.01 in0.3 mm 0.07 in1.8 mm
05:50 AM 66.0°F18.9°C 63.9°F17.7°C 93% 11.5 mph NE18.5 kmh NE 15.0 mph24.1 kmh 29.95 in1014.2 mb - 0.01 in0.3 mm 0.07 in1.8 mm
05:40 AM 66.1°F18.9°C 64.3°F17.9°C 94% 10.4 mph NE16.7 kmh NE 12.7 mph20.4 kmh 29.95 in1014.2 mb - 0.01 in0.3 mm 0.07 in1.8 mm
05:30 AM 66.1°F18.9°C 64.0°F17.8°C 93% 9.2 mph NE14.8 kmh NE 20.7 mph33.3 kmh 29.95 in1014.2 mb - 0.01 in0.3 mm 0.07 in1.8 mm
05:20 AM 66.1°F18.9°C 64.0°F17.8°C 93% 12.7 mph NE20.4 kmh NE 19.6 mph31.5 kmh 29.95 in1014.2 mb - 0.00 in0.0 mm 0.06 in1.5 mm
05:10 AM 66.3°F19.1°C 64.2°F17.9°C 93% 12.7 mph NE20.4 kmh NE 18.4 mph29.6 kmh 29.95 in1014.2 mb - 0.00 in0.0 mm 0.06 in1.5 mm
05:00 AM 66.4°F19.1°C 64.3°F17.9°C 93% 10.4 mph NE16.7 kmh NE 11.5 mph18.5 kmh 29.95 in1014.2 mb - 0.00 in0.0 mm 0.06 in1.5 mm
04:50 AM 66.3°F19.1°C 64.2°F17.9°C 93% 12.7 mph NE20.4 kmh NE 18.4 mph29.6 kmh 29.94 in1013.9 mb - 0.00 in0.0 mm 0.06 in1.5 mm
04:40 AM 66.2°F19.0°C 64.1°F17.8°C 93% 13.8 mph NE22.2 kmh NE 19.6 mph31.5 kmh 29.94 in1013.9 mb - 0.00 in0.0 mm 0.06 in1.5 mm
04:30 AM 66.2°F19.0°C 64.1°F17.8°C 93% 9.2 mph NE14.8 kmh NE 15.0 mph24.1 kmh 29.94 in1013.9 mb - 0.00 in0.0 mm 0.06 in1.5 mm
04:20 AM 66.1°F18.9°C 63.7°F17.6°C 92% 10.4 mph NE16.7 kmh NE 11.5 mph18.5 kmh 29.95 in1014.2 mb - 0.00 in0.0 mm 0.06 in1.5 mm
04:10 AM 66.0°F18.9°C 63.6°F17.6°C 92% 10.4 mph NE16.7 kmh NE 13.8 mph22.2 kmh 29.94 in1013.9 mb - 0.00 in0.0 mm 0.06 in1.5 mm
04:00 AM 66.0°F18.9°C 63.6°F17.6°C 92% 9.2 mph NE14.8 kmh NE 15.0 mph24.1 kmh 29.94 in1013.9 mb - 0.00 in0.0 mm 0.06 in1.5 mm
03:50 AM 66.0°F18.9°C 63.6°F17.6°C 92% 6.9 mph NE11.1 kmh NE 12.7 mph20.4 kmh 29.93 in1013.5 mb - 0.00 in0.0 mm 0.06 in1.5 mm
03:40 AM 66.1°F18.9°C 64.0°F17.8°C 93% 10.4 mph NE16.7 kmh NE 13.8 mph22.2 kmh 29.94 in1013.9 mb - 0.00 in0.0 mm 0.06 in1.5 mm
03:30 AM 66.1°F18.9°C 64.0°F17.8°C 93% 10.4 mph NE16.7 kmh NE 12.7 mph20.4 kmh 29.94 in1013.9 mb - 0.00 in0.0 mm 0.06 in1.5 mm
03:20 AM 66.2°F19.0°C 64.1°F17.8°C 93% 10.4 mph NE16.7 kmh NE 12.7 mph20.4 kmh 29.94 in1013.9 mb - 0.00 in0.0 mm 0.06 in1.5 mm
03:10 AM 66.3°F19.1°C 64.2°F17.9°C 93% 8.1 mph NE13.0 kmh NE 13.8 mph22.2 kmh 29.93 in1013.5 mb - 0.00 in0.0 mm 0.06 in1.5 mm
03:00 AM 66.3°F19.1°C 64.2°F17.9°C 93% 13.8 mph NE22.2 kmh NE 19.6 mph31.5 kmh 29.93 in1013.5 mb - 0.00 in0.0 mm 0.06 in1.5 mm
02:50 AM 66.3°F19.1°C 64.2°F17.9°C 93% 9.2 mph NNE14.8 kmh NNE 16.1 mph25.9 kmh 29.94 in1013.9 mb - 0.00 in0.0 mm 0.06 in1.5 mm
02:40 AM 66.4°F19.1°C 64.6°F18.1°C 94% 12.7 mph NE20.4 kmh NE 18.4 mph29.6 kmh 29.93 in1013.5 mb - 0.01 in0.3 mm 0.06 in1.5 mm
02:30 AM 66.4°F19.1°C 64.6°F18.1°C 94% 10.4 mph NE16.7 kmh NE 18.4 mph29.6 kmh 29.93 in1013.5 mb - 0.02 in0.5 mm 0.06 in1.5 mm
02:20 AM 66.5°F19.2°C 64.7°F18.2°C 94% 10.4 mph NE16.7 kmh NE 16.1 mph25.9 kmh 29.94 in1013.9 mb - 0.02 in0.5 mm 0.06 in1.5 mm
02:10 AM 66.6°F19.2°C 64.8°F18.2°C 94% 11.5 mph NE18.5 kmh NE 12.7 mph20.4 kmh 29.94 in1013.9 mb - 0.02 in0.5 mm 0.06 in1.5 mm
02:00 AM 66.4°F19.1°C 64.6°F18.1°C 94% 11.5 mph NE18.5 kmh NE 16.1 mph25.9 kmh 29.95 in1014.2 mb - 0.02 in0.5 mm 0.06 in1.5 mm
01:50 AM 66.5°F19.2°C 64.8°F18.2°C 94% 11.5 mph NE18.5 kmh NE 18.4 mph29.6 kmh 29.94 in1013.9 mb - 0.03 in0.8 mm 0.06 in1.5 mm
01:40 AM 66.7°F19.3°C 64.9°F18.3°C 94% 9.2 mph NE14.8 kmh NE 16.1 mph25.9 kmh 29.95 in1014.2 mb - 0.03 in0.8 mm 0.05 in1.3 mm
01:30 AM 66.7°F19.3°C 65.0°F18.3°C 94% 10.4 mph NE16.7 kmh NE 12.7 mph20.4 kmh 29.95 in1014.2 mb - 0.02 in0.5 mm 0.04 in1.0 mm
01:20 AM 66.9°F19.4°C 65.1°F18.4°C 94% 15.0 mph ENE24.1 kmh ENE 17.3 mph27.8 kmh 29.96 in1014.6 mb - 0.02 in0.5 mm 0.04 in1.0 mm
01:10 AM 66.9°F19.4°C 65.4°F18.6°C 95% 12.7 mph NE20.4 kmh NE 18.4 mph29.6 kmh 29.96 in1014.6 mb - 0.02 in0.5 mm 0.04 in1.0 mm
01:00 AM 67.0°F19.4°C 65.5°F18.6°C 95% 10.4 mph NE16.7 kmh NE 21.9 mph35.2 kmh 29.96 in1014.6 mb - 0.04 in1.0 mm 0.04 in1.0 mm
12:50 AM 67.0°F19.4°C 65.5°F18.6°C 95% 12.7 mph NNE20.4 kmh NNE 17.3 mph27.8 kmh 29.96 in1014.6 mb - 0.03 in0.8 mm 0.03 in0.8 mm
12:40 AM 67.1°F19.5°C 65.6°F18.7°C 95% 8.1 mph NE13.0 kmh NE 12.7 mph20.4 kmh 29.97 in1014.9 mb - 0.04 in1.0 mm 0.03 in0.8 mm
12:30 AM 67.2°F19.6°C 65.7°F18.7°C 95% 9.2 mph NNE14.8 kmh NNE 13.8 mph22.2 kmh 29.97 in1014.9 mb - 0.03 in0.8 mm 0.02 in0.5 mm
12:20 AM 67.2°F19.6°C 65.7°F18.7°C 95% 8.1 mph NNE13.0 kmh NNE 11.5 mph18.5 kmh 29.97 in1014.9 mb - 0.04 in1.0 mm 0.02 in0.5 mm
12:10 AM 67.3°F19.6°C 65.8°F18.8°C 95% 10.4 mph NE16.7 kmh NE 11.5 mph18.5 kmh 29.98 in1015.2 mb - 0.04 in1.0 mm 0.02 in0.5 mm
12:00 AM 67.2°F19.6°C 65.7°F18.7°C 95% 8.1 mph NNE13.0 kmh NNE 13.8 mph22.2 kmh 29.97 in1014.9 mb - 0.03 in0.8 mm 0.03 in0.8 mm